sensor_id;sensor_type;location;lat;lon;timestamp;P1;durP1;ratioP1;P2;durP2;ratioP2
26806;SDS011;14380;49.910;6.792;2022-12-07T00:01:45;25.13;;;14.55;;
26806;SDS011;14380;49.910;6.792;2022-12-07T00:04:13;25.40;;;14.65;;
26806;SDS011;14380;49.910;6.792;2022-12-07T00:06:42;27.63;;;15.88;;
26806;SDS011;14380;49.910;6.792;2022-12-07T00:09:11;27.92;;;14.63;;
26806;SDS011;14380;49.910;6.792;2022-12-07T00:11:38;49.30;;;14.95;;
26806;SDS011;14380;49.910;6.792;2022-12-07T00:14:07;24.38;;;13.88;;
26806;SDS011;14380;49.910;6.792;2022-12-07T00:16:36;25.10;;;13.80;;
26806;SDS011;14380;49.910;6.792;2022-12-07T00:19:03;26.63;;;15.35;;
26806;SDS011;14380;49.910;6.792;2022-12-07T00:21:31;22.88;;;13.18;;
26806;SDS011;14380;49.910;6.792;2022-12-07T00:23:59;25.52;;;14.32;;
26806;SDS011;14380;49.910;6.792;2022-12-07T00:26:27;26.33;;;14.95;;
26806;SDS011;14380;49.910;6.792;2022-12-07T00:28:55;26.92;;;15.20;;
26806;SDS011;14380;49.910;6.792;2022-12-07T00:31:26;25.25;;;14.00;;
26806;SDS011;14380;49.910;6.792;2022-12-07T00:33:54;28.38;;;15.18;;
26806;SDS011;14380;49.910;6.792;2022-12-07T00:36:22;25.85;;;15.55;;
26806;SDS011;14380;49.910;6.792;2022-12-07T00:38:49;27.85;;;14.82;;
26806;SDS011;14380;49.910;6.792;2022-12-07T00:41:17;27.50;;;14.95;;
26806;SDS011;14380;49.910;6.792;2022-12-07T00:43:45;28.75;;;15.27;;
26806;SDS011;14380;49.910;6.792;2022-12-07T00:46:14;25.85;;;14.57;;
26806;SDS011;14380;49.910;6.792;2022-12-07T00:48:42;24.40;;;14.32;;
26806;SDS011;14380;49.910;6.792;2022-12-07T00:51:09;28.73;;;15.02;;
26806;SDS011;14380;49.910;6.792;2022-12-07T00:53:38;26.83;;;15.23;;
26806;SDS011;14380;49.910;6.792;2022-12-07T00:56:05;29.23;;;14.65;;
26806;SDS011;14380;49.910;6.792;2022-12-07T00:58:32;28.35;;;14.90;;
26806;SDS011;14380;49.910;6.792;2022-12-07T01:00:59;28.38;;;13.82;;
26806;SDS011;14380;49.910;6.792;2022-12-07T01:03:27;25.65;;;14.20;;
26806;SDS011;14380;49.910;6.792;2022-12-07T01:05:55;28.35;;;14.63;;
26806;SDS011;14380;49.910;6.792;2022-12-07T01:08:22;23.80;;;14.23;;
26806;SDS011;14380;49.910;6.792;2022-12-07T01:10:56;29.33;;;15.98;;
26806;SDS011;14380;49.910;6.792;2022-12-07T01:13:24;28.75;;;14.90;;
26806;SDS011;14380;49.910;6.792;2022-12-07T01:15:51;26.40;;;14.82;;
26806;SDS011;14380;49.910;6.792;2022-12-07T01:18:17;29.05;;;14.85;;
26806;SDS011;14380;49.910;6.792;2022-12-07T01:20:44;24.92;;;14.27;;
26806;SDS011;14380;49.910;6.792;2022-12-07T01:23:12;29.42;;;15.82;;
26806;SDS011;14380;49.910;6.792;2022-12-07T01:25:38;31.42;;;16.27;;
26806;SDS011;14380;49.910;6.792;2022-12-07T01:28:05;32.42;;;15.88;;
26806;SDS011;14380;49.910;6.792;2022-12-07T01:30:31;29.63;;;17.08;;
26806;SDS011;14380;49.910;6.792;2022-12-07T01:32:58;32.67;;;16.92;;
26806;SDS011;14380;49.910;6.792;2022-12-07T01:35:24;29.85;;;15.50;;
26806;SDS011;14380;49.910;6.792;2022-12-07T01:37:51;33.95;;;16.38;;
26806;SDS011;14380;49.910;6.792;2022-12-07T01:40:19;25.40;;;14.38;;
26806;SDS011;14380;49.910;6.792;2022-12-07T01:42:46;34.33;;;16.52;;
26806;SDS011;14380;49.910;6.792;2022-12-07T01:48:09;25.08;;;14.18;;
26806;SDS011;14380;49.910;6.792;2022-12-07T01:50:39;30.02;;;16.05;;
26806;SDS011;14380;49.910;6.792;2022-12-07T01:53:08;37.75;;;16.02;;
26806;SDS011;14380;49.910;6.792;2022-12-07T01:55:38;29.02;;;14.85;;
26806;SDS011;14380;49.910;6.792;2022-12-07T01:58:09;28.95;;;14.75;;
26806;SDS011;14380;49.910;6.792;2022-12-07T02:00:38;32.15;;;16.13;;
26806;SDS011;14380;49.910;6.792;2022-12-07T02:03:06;31.73;;;16.10;;
26806;SDS011;14380;49.910;6.792;2022-12-07T02:05:37;32.97;;;16.45;;
26806;SDS011;14380;49.910;6.792;2022-12-07T02:08:06;32.08;;;16.70;;
26806;SDS011;14380;49.910;6.792;2022-12-07T02:10:34;30.77;;;17.10;;
26806;SDS011;14380;49.910;6.792;2022-12-07T02:13:02;34.65;;;19.70;;
26806;SDS011;14380;49.910;6.792;2022-12-07T02:15:38;39.33;;;19.92;;
26806;SDS011;14380;49.910;6.792;2022-12-07T02:18:16;35.70;;;19.70;;
26806;SDS011;14380;49.910;6.792;2022-12-07T02:20:53;33.58;;;18.38;;
26806;SDS011;14380;49.910;6.792;2022-12-07T02:23:41;34.35;;;19.58;;
26806;SDS011;14380;49.910;6.792;2022-12-07T02:26:29;39.47;;;19.80;;
26806;SDS011;14380;49.910;6.792;2022-12-07T02:29:13;39.60;;;21.60;;
26806;SDS011;14380;49.910;6.792;2022-12-07T02:34:19;32.25;;;17.73;;
26806;SDS011;14380;49.910;6.792;2022-12-07T02:36:54;36.42;;;19.23;;
26806;SDS011;14380;49.910;6.792;2022-12-07T02:39:28;30.30;;;16.73;;
26806;SDS011;14380;49.910;6.792;2022-12-07T02:42:00;38.72;;;19.70;;
26806;SDS011;14380;49.910;6.792;2022-12-07T02:44:35;37.55;;;19.95;;
26806;SDS011;14380;49.910;6.792;2022-12-07T02:47:03;28.75;;;16.48;;
26806;SDS011;14380;49.910;6.792;2022-12-07T02:49:33;31.35;;;16.00;;
26806;SDS011;14380;49.910;6.792;2022-12-07T02:52:01;31.58;;;17.42;;
26806;SDS011;14380;49.910;6.792;2022-12-07T02:54:28;27.05;;;16.13;;
26806;SDS011;14380;49.910;6.792;2022-12-07T02:56:56;28.40;;;16.70;;
26806;SDS011;14380;49.910;6.792;2022-12-07T02:59:36;27.80;;;15.60;;
26806;SDS011;14380;49.910;6.792;2022-12-07T03:02:17;34.63;;;18.50;;
26806;SDS011;14380;49.910;6.792;2022-12-07T03:04:52;44.35;;;18.77;;
26806;SDS011;14380;49.910;6.792;2022-12-07T03:07:30;28.02;;;16.00;;
26806;SDS011;14380;49.910;6.792;2022-12-07T03:10:07;31.00;;;16.42;;
26806;SDS011;14380;49.910;6.792;2022-12-07T03:12:42;36.58;;;17.27;;
26806;SDS011;14380;49.910;6.792;2022-12-07T03:15:14;28.35;;;16.90;;
26806;SDS011;14380;49.910;6.792;2022-12-07T03:17:45;32.13;;;17.48;;
26806;SDS011;14380;49.910;6.792;2022-12-07T03:20:15;36.08;;;18.15;;
26806;SDS011;14380;49.910;6.792;2022-12-07T03:22:47;27.35;;;15.45;;
26806;SDS011;14380;49.910;6.792;2022-12-07T03:25:14;28.02;;;15.73;;
26806;SDS011;14380;49.910;6.792;2022-12-07T03:27:43;32.00;;;16.50;;
26806;SDS011;14380;49.910;6.792;2022-12-07T03:30:19;30.10;;;16.45;;
26806;SDS011;14380;49.910;6.792;2022-12-07T03:32:48;26.17;;;15.38;;
26806;SDS011;14380;49.910;6.792;2022-12-07T03:35:20;27.40;;;15.52;;
26806;SDS011;14380;49.910;6.792;2022-12-07T03:37:51;29.65;;;15.65;;
26806;SDS011;14380;49.910;6.792;2022-12-07T03:40:22;31.75;;;16.88;;
26806;SDS011;14380;49.910;6.792;2022-12-07T03:42:52;33.92;;;18.50;;
26806;SDS011;14380;49.910;6.792;2022-12-07T03:45:23;29.90;;;15.55;;
26806;SDS011;14380;49.910;6.792;2022-12-07T03:47:59;28.92;;;15.63;;
26806;SDS011;14380;49.910;6.792;2022-12-07T03:50:36;28.83;;;15.30;;
26806;SDS011;14380;49.910;6.792;2022-12-07T03:53:09;27.58;;;16.05;;
26806;SDS011;14380;49.910;6.792;2022-12-07T03:55:41;29.63;;;15.10;;
26806;SDS011;14380;49.910;6.792;2022-12-07T03:58:11;29.27;;;16.92;;
26806;SDS011;14380;49.910;6.792;2022-12-07T04:00:41;29.83;;;16.63;;
26806;SDS011;14380;49.910;6.792;2022-12-07T04:03:09;39.22;;;18.15;;
26806;SDS011;14380;49.910;6.792;2022-12-07T04:05:35;28.52;;;16.75;;
26806;SDS011;14380;49.910;6.792;2022-12-07T04:08:03;32.30;;;17.05;;
26806;SDS011;14380;49.910;6.792;2022-12-07T04:10:42;36.85;;;16.92;;
26806;SDS011;14380;49.910;6.792;2022-12-07T04:13:09;28.73;;;15.68;;
26806;SDS011;14380;49.910;6.792;2022-12-07T04:15:35;30.27;;;16.20;;
26806;SDS011;14380;49.910;6.792;2022-12-07T04:18:03;38.35;;;18.17;;
26806;SDS011;14380;49.910;6.792;2022-12-07T04:20:29;29.85;;;16.77;;
26806;SDS011;14380;49.910;6.792;2022-12-07T04:22:56;27.95;;;16.52;;
26806;SDS011;14380;49.910;6.792;2022-12-07T04:25:22;29.58;;;15.27;;
26806;SDS011;14380;49.910;6.792;2022-12-07T04:27:49;31.00;;;16.33;;
26806;SDS011;14380;49.910;6.792;2022-12-07T04:30:15;30.80;;;17.25;;
26806;SDS011;14380;49.910;6.792;2022-12-07T04:32:42;32.72;;;16.67;;
26806;SDS011;14380;49.910;6.792;2022-12-07T04:35:10;27.90;;;16.05;;
26806;SDS011;14380;49.910;6.792;2022-12-07T04:37:36;29.92;;;16.60;;
26806;SDS011;14380;49.910;6.792;2022-12-07T04:40:05;33.72;;;16.50;;
26806;SDS011;14380;49.910;6.792;2022-12-07T04:42:33;32.17;;;17.27;;
26806;SDS011;14380;49.910;6.792;2022-12-07T04:45:00;29.52;;;16.70;;
26806;SDS011;14380;49.910;6.792;2022-12-07T04:47:26;31.98;;;17.42;;
26806;SDS011;14380;49.910;6.792;2022-12-07T04:49:53;33.28;;;17.63;;
26806;SDS011;14380;49.910;6.792;2022-12-07T04:52:20;36.88;;;19.55;;
26806;SDS011;14380;49.910;6.792;2022-12-07T04:54:47;32.28;;;18.00;;
26806;SDS011;14380;49.910;6.792;2022-12-07T04:57:13;30.65;;;18.70;;
26806;SDS011;14380;49.910;6.792;2022-12-07T04:59:40;37.13;;;19.00;;
26806;SDS011;14380;49.910;6.792;2022-12-07T05:02:06;36.20;;;18.85;;
26806;SDS011;14380;49.910;6.792;2022-12-07T05:04:33;30.67;;;17.60;;
26806;SDS011;14380;49.910;6.792;2022-12-07T05:06:59;30.15;;;17.33;;
26806;SDS011;14380;49.910;6.792;2022-12-07T05:09:27;28.77;;;16.88;;
26806;SDS011;14380;49.910;6.792;2022-12-07T05:11:54;29.35;;;16.95;;
26806;SDS011;14380;49.910;6.792;2022-12-07T05:14:20;32.75;;;18.83;;
26806;SDS011;14380;49.910;6.792;2022-12-07T05:16:49;42.15;;;21.80;;
26806;SDS011;14380;49.910;6.792;2022-12-07T05:19:16;50.70;;;24.92;;
26806;SDS011;14380;49.910;6.792;2022-12-07T05:21:44;48.13;;;24.70;;
26806;SDS011;14380;49.910;6.792;2022-12-07T05:24:11;42.83;;;23.08;;
26806;SDS011;14380;49.910;6.792;2022-12-07T05:26:41;41.63;;;22.98;;
26806;SDS011;14380;49.910;6.792;2022-12-07T05:29:10;34.13;;;20.17;;
26806;SDS011;14380;49.910;6.792;2022-12-07T05:31:37;53.35;;;24.08;;
26806;SDS011;14380;49.910;6.792;2022-12-07T05:34:04;43.08;;;20.85;;
26806;SDS011;14380;49.910;6.792;2022-12-07T05:36:30;32.33;;;17.98;;
26806;SDS011;14380;49.910;6.792;2022-12-07T05:38:57;32.63;;;17.25;;
26806;SDS011;14380;49.910;6.792;2022-12-07T05:41:23;31.25;;;17.75;;
26806;SDS011;14380;49.910;6.792;2022-12-07T05:44:24;30.15;;;16.38;;
26806;SDS011;14380;49.910;6.792;2022-12-07T05:46:50;30.15;;;17.70;;
26806;SDS011;14380;49.910;6.792;2022-12-07T05:49:17;30.85;;;17.55;;
26806;SDS011;14380;49.910;6.792;2022-12-07T05:51:43;34.65;;;17.30;;
26806;SDS011;14380;49.910;6.792;2022-12-07T05:54:10;31.88;;;18.30;;
26806;SDS011;14380;49.910;6.792;2022-12-07T05:56:36;35.90;;;18.17;;
26806;SDS011;14380;49.910;6.792;2022-12-07T05:59:03;32.10;;;18.75;;
26806;SDS011;14380;49.910;6.792;2022-12-07T06:01:45;30.73;;;17.65;;
26806;SDS011;14380;49.910;6.792;2022-12-07T06:04:11;33.33;;;19.33;;
26806;SDS011;14380;49.910;6.792;2022-12-07T06:06:38;31.65;;;17.67;;
26806;SDS011;14380;49.910;6.792;2022-12-07T06:09:04;31.20;;;18.67;;
26806;SDS011;14380;49.910;6.792;2022-12-07T06:11:31;29.75;;;18.17;;
26806;SDS011;14380;49.910;6.792;2022-12-07T06:14:15;31.85;;;18.10;;
26806;SDS011;14380;49.910;6.792;2022-12-07T06:16:41;28.42;;;17.00;;
26806;SDS011;14380;49.910;6.792;2022-12-07T06:19:09;34.83;;;18.05;;
26806;SDS011;14380;49.910;6.792;2022-12-07T06:21:36;36.60;;;18.67;;
26806;SDS011;14380;49.910;6.792;2022-12-07T06:24:03;33.67;;;19.27;;
26806;SDS011;14380;49.910;6.792;2022-12-07T06:26:29;30.10;;;17.75;;
26806;SDS011;14380;49.910;6.792;2022-12-07T06:28:56;33.33;;;18.33;;
26806;SDS011;14380;49.910;6.792;2022-12-07T06:31:23;32.45;;;18.75;;
26806;SDS011;14380;49.910;6.792;2022-12-07T06:33:49;30.85;;;16.90;;
26806;SDS011;14380;49.910;6.792;2022-12-07T06:36:17;33.55;;;17.77;;
26806;SDS011;14380;49.910;6.792;2022-12-07T06:38:43;28.85;;;17.30;;
26806;SDS011;14380;49.910;6.792;2022-12-07T06:41:10;36.53;;;18.58;;
26806;SDS011;14380;49.910;6.792;2022-12-07T06:43:36;32.60;;;17.23;;
26806;SDS011;14380;49.910;6.792;2022-12-07T06:46:03;31.80;;;17.08;;
26806;SDS011;14380;49.910;6.792;2022-12-07T06:48:30;32.22;;;16.90;;
26806;SDS011;14380;49.910;6.792;2022-12-07T06:50:56;30.38;;;17.40;;
26806;SDS011;14380;49.910;6.792;2022-12-07T06:53:24;35.88;;;17.17;;
26806;SDS011;14380;49.910;6.792;2022-12-07T06:55:50;34.25;;;18.55;;
26806;SDS011;14380;49.910;6.792;2022-12-07T06:58:17;33.08;;;17.33;;
26806;SDS011;14380;49.910;6.792;2022-12-07T07:00:44;30.52;;;17.40;;
26806;SDS011;14380;49.910;6.792;2022-12-07T07:03:11;30.13;;;16.10;;
26806;SDS011;14380;49.910;6.792;2022-12-07T07:05:38;32.35;;;16.75;;
26806;SDS011;14380;49.910;6.792;2022-12-07T07:08:04;28.70;;;16.15;;
26806;SDS011;14380;49.910;6.792;2022-12-07T07:10:32;32.97;;;18.33;;
26806;SDS011;14380;49.910;6.792;2022-12-07T07:12:59;29.50;;;16.65;;
26806;SDS011;14380;49.910;6.792;2022-12-07T07:15:25;31.08;;;16.42;;
26806;SDS011;14380;49.910;6.792;2022-12-07T07:17:52;30.48;;;16.08;;
26806;SDS011;14380;49.910;6.792;2022-12-07T07:20:18;32.55;;;16.95;;
26806;SDS011;14380;49.910;6.792;2022-12-07T07:22:45;27.08;;;15.60;;
26806;SDS011;14380;49.910;6.792;2022-12-07T07:25:12;26.17;;;14.38;;
26806;SDS011;14380;49.910;6.792;2022-12-07T07:27:40;26.45;;;15.40;;
26806;SDS011;14380;49.910;6.792;2022-12-07T07:30:07;25.90;;;13.80;;
26806;SDS011;14380;49.910;6.792;2022-12-07T07:32:34;25.83;;;14.43;;
26806;SDS011;14380;49.910;6.792;2022-12-07T07:35:01;24.00;;;14.85;;
26806;SDS011;14380;49.910;6.792;2022-12-07T07:37:27;26.10;;;14.68;;
26806;SDS011;14380;49.910;6.792;2022-12-07T07:39:54;27.85;;;14.45;;
26806;SDS011;14380;49.910;6.792;2022-12-07T07:42:20;22.90;;;13.60;;
26806;SDS011;14380;49.910;6.792;2022-12-07T07:44:48;23.63;;;14.25;;
26806;SDS011;14380;49.910;6.792;2022-12-07T07:47:14;23.95;;;14.63;;
26806;SDS011;14380;49.910;6.792;2022-12-07T07:49:41;25.58;;;15.45;;
26806;SDS011;14380;49.910;6.792;2022-12-07T07:52:07;27.92;;;14.38;;
26806;SDS011;14380;49.910;6.792;2022-12-07T07:54:34;23.15;;;14.18;;
26806;SDS011;14380;49.910;6.792;2022-12-07T07:57:01;26.20;;;13.35;;
26806;SDS011;14380;49.910;6.792;2022-12-07T07:59:27;27.70;;;15.32;;
26806;SDS011;14380;49.910;6.792;2022-12-07T08:01:55;136.48;;;16.65;;
26806;SDS011;14380;49.910;6.792;2022-12-07T08:04:22;40.72;;;17.55;;
26806;SDS011;14380;49.910;6.792;2022-12-07T08:06:48;32.15;;;16.58;;
26806;SDS011;14380;49.910;6.792;2022-12-07T08:09:15;27.25;;;15.98;;
26806;SDS011;14380;49.910;6.792;2022-12-07T08:11:41;31.40;;;16.30;;
26806;SDS011;14380;49.910;6.792;2022-12-07T08:14:08;32.63;;;17.05;;
26806;SDS011;14380;49.910;6.792;2022-12-07T08:16:36;36.20;;;17.95;;
26806;SDS011;14380;49.910;6.792;2022-12-07T08:19:05;32.97;;;16.23;;
26806;SDS011;14380;49.910;6.792;2022-12-07T08:21:31;27.85;;;14.73;;
26806;SDS011;14380;49.910;6.792;2022-12-07T08:23:58;29.35;;;16.48;;
26806;SDS011;14380;49.910;6.792;2022-12-07T08:26:24;28.60;;;15.98;;
26806;SDS011;14380;49.910;6.792;2022-12-07T08:28:52;26.77;;;15.23;;
26806;SDS011;14380;49.910;6.792;2022-12-07T08:31:19;23.98;;;14.18;;
26806;SDS011;14380;49.910;6.792;2022-12-07T08:33:46;25.85;;;14.23;;
26806;SDS011;14380;49.910;6.792;2022-12-07T08:36:15;25.52;;;14.32;;
26806;SDS011;14380;49.910;6.792;2022-12-07T08:38:42;27.20;;;14.15;;
26806;SDS011;14380;49.910;6.792;2022-12-07T08:41:09;25.83;;;14.85;;
26806;SDS011;14380;49.910;6.792;2022-12-07T08:43:36;24.25;;;13.70;;
26806;SDS011;14380;49.910;6.792;2022-12-07T08:46:05;24.25;;;14.15;;
26806;SDS011;14380;49.910;6.792;2022-12-07T08:48:35;23.17;;;14.88;;
26806;SDS011;14380;49.910;6.792;2022-12-07T08:51:05;26.55;;;14.45;;
26806;SDS011;14380;49.910;6.792;2022-12-07T08:53:33;23.92;;;13.70;;
26806;SDS011;14380;49.910;6.792;2022-12-07T08:56:01;24.77;;;13.23;;
26806;SDS011;14380;49.910;6.792;2022-12-07T08:58:27;23.98;;;13.05;;
26806;SDS011;14380;49.910;6.792;2022-12-07T09:00:54;21.88;;;12.95;;
26806;SDS011;14380;49.910;6.792;2022-12-07T09:03:20;19.30;;;11.63;;
26806;SDS011;14380;49.910;6.792;2022-12-07T09:05:47;19.17;;;12.32;;
26806;SDS011;14380;49.910;6.792;2022-12-07T09:08:13;22.17;;;13.10;;
26806;SDS011;14380;49.910;6.792;2022-12-07T09:10:42;21.00;;;12.73;;
26806;SDS011;14380;49.910;6.792;2022-12-07T09:13:08;21.63;;;12.77;;
26806;SDS011;14380;49.910;6.792;2022-12-07T09:15:35;18.90;;;12.15;;
26806;SDS011;14380;49.910;6.792;2022-12-07T09:18:01;22.42;;;12.15;;
26806;SDS011;14380;49.910;6.792;2022-12-07T09:20:28;23.23;;;12.80;;
26806;SDS011;14380;49.910;6.792;2022-12-07T09:22:54;20.75;;;12.00;;
26806;SDS011;14380;49.910;6.792;2022-12-07T09:25:21;23.27;;;12.25;;
26806;SDS011;14380;49.910;6.792;2022-12-07T09:27:51;24.05;;;14.23;;
26806;SDS011;14380;49.910;6.792;2022-12-07T09:30:21;22.95;;;12.25;;
26806;SDS011;14380;49.910;6.792;2022-12-07T09:32:48;20.08;;;11.57;;
26806;SDS011;14380;49.910;6.792;2022-12-07T09:35:14;19.60;;;12.10;;
26806;SDS011;14380;49.910;6.792;2022-12-07T09:37:41;19.40;;;11.45;;
26806;SDS011;14380;49.910;6.792;2022-12-07T09:40:07;21.25;;;12.15;;
26806;SDS011;14380;49.910;6.792;2022-12-07T09:42:35;22.63;;;11.13;;
26806;SDS011;14380;49.910;6.792;2022-12-07T09:45:06;19.45;;;10.55;;
26806;SDS011;14380;49.910;6.792;2022-12-07T09:47:38;21.45;;;10.60;;
26806;SDS011;14380;49.910;6.792;2022-12-07T09:50:05;19.48;;;10.35;;
26806;SDS011;14380;49.910;6.792;2022-12-07T09:52:37;16.77;;;9.20;;
26806;SDS011;14380;49.910;6.792;2022-12-07T09:55:08;19.40;;;10.75;;
26806;SDS011;14380;49.910;6.792;2022-12-07T09:57:37;17.92;;;9.10;;
26806;SDS011;14380;49.910;6.792;2022-12-07T10:00:04;15.65;;;8.65;;
26806;SDS011;14380;49.910;6.792;2022-12-07T10:02:38;15.38;;;9.13;;
26806;SDS011;14380;49.910;6.792;2022-12-07T10:05:07;17.23;;;8.68;;
26806;SDS011;14380;49.910;6.792;2022-12-07T10:07:39;15.77;;;8.07;;
26806;SDS011;14380;49.910;6.792;2022-12-07T10:10:06;15.07;;;8.88;;
26806;SDS011;14380;49.910;6.792;2022-12-07T10:12:52;17.50;;;8.73;;
26806;SDS011;14380;49.910;6.792;2022-12-07T10:15:24;13.30;;;7.60;;
26806;SDS011;14380;49.910;6.792;2022-12-07T10:18:15;10.82;;;6.82;;
26806;SDS011;14380;49.910;6.792;2022-12-07T10:20:44;12.15;;;6.97;;
26806;SDS011;14380;49.910;6.792;2022-12-07T10:23:13;10.18;;;6.28;;
26806;SDS011;14380;49.910;6.792;2022-12-07T10:25:41;9.20;;;6.10;;
26806;SDS011;14380;49.910;6.792;2022-12-07T10:28:15;12.55;;;6.63;;
26806;SDS011;14380;49.910;6.792;2022-12-07T10:30:48;10.43;;;6.55;;
26806;SDS011;14380;49.910;6.792;2022-12-07T10:33:29;10.20;;;6.53;;
26806;SDS011;14380;49.910;6.792;2022-12-07T10:35:58;9.63;;;6.35;;
26806;SDS011;14380;49.910;6.792;2022-12-07T10:38:26;11.30;;;6.60;;
26806;SDS011;14380;49.910;6.792;2022-12-07T10:41:05;10.52;;;6.28;;
26806;SDS011;14380;49.910;6.792;2022-12-07T10:43:32;12.40;;;6.25;;
26806;SDS011;14380;49.910;6.792;2022-12-07T10:46:17;8.90;;;6.03;;
26806;SDS011;14380;49.910;6.792;2022-12-07T10:49:19;11.02;;;6.10;;
26806;SDS011;14380;49.910;6.792;2022-12-07T10:52:03;8.68;;;5.53;;
26806;SDS011;14380;49.910;6.792;2022-12-07T10:54:39;13.00;;;6.45;;
26806;SDS011;14380;49.910;6.792;2022-12-07T10:57:16;13.73;;;6.78;;
26806;SDS011;14380;49.910;6.792;2022-12-07T11:00:01;10.00;;;6.28;;
26806;SDS011;14380;49.910;6.792;2022-12-07T11:02:49;11.90;;;5.97;;
26806;SDS011;14380;49.910;6.792;2022-12-07T11:05:30;11.18;;;5.70;;
26806;SDS011;14380;49.910;6.792;2022-12-07T11:08:12;10.18;;;5.57;;
26806;SDS011;14380;49.910;6.792;2022-12-07T11:10:47;11.00;;;6.13;;
26806;SDS011;14380;49.910;6.792;2022-12-07T11:13:22;9.32;;;6.25;;
26806;SDS011;14380;49.910;6.792;2022-12-07T11:15:55;8.85;;;5.03;;
26806;SDS011;14380;49.910;6.792;2022-12-07T11:18:45;10.15;;;5.90;;
26806;SDS011;14380;49.910;6.792;2022-12-07T11:21:24;8.20;;;4.93;;
26806;SDS011;14380;49.910;6.792;2022-12-07T11:23:56;7.00;;;4.97;;
26806;SDS011;14380;49.910;6.792;2022-12-07T11:26:34;9.23;;;5.10;;
26806;SDS011;14380;49.910;6.792;2022-12-07T11:29:19;8.95;;;4.95;;
26806;SDS011;14380;49.910;6.792;2022-12-07T11:31:58;13.40;;;5.35;;
26806;SDS011;14380;49.910;6.792;2022-12-07T11:34:42;14.57;;;8.20;;
26806;SDS011;14380;49.910;6.792;2022-12-07T11:37:18;8.88;;;4.80;;
26806;SDS011;14380;49.910;6.792;2022-12-07T11:39:47;10.10;;;5.65;;
26806;SDS011;14380;49.910;6.792;2022-12-07T11:42:19;7.35;;;4.60;;
26806;SDS011;14380;49.910;6.792;2022-12-07T11:44:50;6.93;;;3.60;;
26806;SDS011;14380;49.910;6.792;2022-12-07T11:47:22;7.95;;;4.40;;
26806;SDS011;14380;49.910;6.792;2022-12-07T11:49:58;8.68;;;3.75;;
26806;SDS011;14380;49.910;6.792;2022-12-07T11:52:39;11.50;;;4.22;;
26806;SDS011;14380;49.910;6.792;2022-12-07T11:55:14;8.55;;;4.28;;
26806;SDS011;14380;49.910;6.792;2022-12-07T11:57:46;9.82;;;4.10;;
26806;SDS011;14380;49.910;6.792;2022-12-07T12:00:18;7.22;;;3.25;;
26806;SDS011;14380;49.910;6.792;2022-12-07T12:02:46;6.15;;;3.65;;
26806;SDS011;14380;49.910;6.792;2022-12-07T12:05:20;5.07;;;3.22;;
26806;SDS011;14380;49.910;6.792;2022-12-07T12:07:49;8.50;;;3.90;;
26806;SDS011;14380;49.910;6.792;2022-12-07T12:10:24;7.50;;;3.60;;
26806;SDS011;14380;49.910;6.792;2022-12-07T12:15:59;5.70;;;2.88;;
26806;SDS011;14380;49.910;6.792;2022-12-07T12:18:44;6.22;;;4.43;;
26806;SDS011;14380;49.910;6.792;2022-12-07T12:21:21;7.75;;;3.20;;
26806;SDS011;14380;49.910;6.792;2022-12-07T12:23:54;6.88;;;3.08;;
26806;SDS011;14380;49.910;6.792;2022-12-07T12:26:25;7.30;;;3.08;;
26806;SDS011;14380;49.910;6.792;2022-12-07T12:28:54;6.55;;;3.40;;
26806;SDS011;14380;49.910;6.792;2022-12-07T12:31:34;8.60;;;3.78;;
26806;SDS011;14380;49.910;6.792;2022-12-07T12:34:10;5.47;;;3.38;;
26806;SDS011;14380;49.910;6.792;2022-12-07T12:36:59;6.32;;;2.97;;
26806;SDS011;14380;49.910;6.792;2022-12-07T12:39:26;6.35;;;4.30;;
26806;SDS011;14380;49.910;6.792;2022-12-07T12:41:56;5.57;;;2.72;;
26806;SDS011;14380;49.910;6.792;2022-12-07T12:47:51;5.90;;;2.55;;
26806;SDS011;14380;49.910;6.792;2022-12-07T12:50:23;7.97;;;2.63;;
26806;SDS011;14380;49.910;6.792;2022-12-07T12:53:03;6.78;;;2.58;;
26806;SDS011;14380;49.910;6.792;2022-12-07T12:58:39;7.37;;;2.73;;
26806;SDS011;14380;49.910;6.792;2022-12-07T13:10:28;5.40;;;2.55;;
26806;SDS011;14380;49.910;6.792;2022-12-07T13:13:02;4.75;;;2.15;;
26806;SDS011;14380;49.910;6.792;2022-12-07T13:15:31;6.18;;;2.53;;
26806;SDS011;14380;49.910;6.792;2022-12-07T13:18:01;4.97;;;2.45;;
26806;SDS011;14380;49.910;6.792;2022-12-07T13:20:49;5.03;;;2.25;;
26806;SDS011;14380;49.910;6.792;2022-12-07T13:23:31;9.88;;;2.97;;
26806;SDS011;14380;49.910;6.792;2022-12-07T13:26:04;5.47;;;2.20;;
26806;SDS011;14380;49.910;6.792;2022-12-07T13:28:39;7.35;;;2.75;;
26806;SDS011;14380;49.910;6.792;2022-12-07T13:31:15;6.97;;;2.75;;
26806;SDS011;14380;49.910;6.792;2022-12-07T13:33:46;9.50;;;3.30;;
26806;SDS011;14380;49.910;6.792;2022-12-07T13:36:19;7.50;;;3.30;;
26806;SDS011;14380;49.910;6.792;2022-12-07T13:38:48;11.75;;;4.18;;
26806;SDS011;14380;49.910;6.792;2022-12-07T13:41:18;9.43;;;3.63;;
26806;SDS011;14380;49.910;6.792;2022-12-07T13:43:48;7.50;;;3.10;;
26806;SDS011;14380;49.910;6.792;2022-12-07T13:46:17;14.18;;;4.28;;
26806;SDS011;14380;49.910;6.792;2022-12-07T13:48:48;8.30;;;4.32;;
26806;SDS011;14380;49.910;6.792;2022-12-07T13:51:20;6.63;;;3.90;;
26806;SDS011;14380;49.910;6.792;2022-12-07T13:53:50;7.43;;;3.20;;
26806;SDS011;14380;49.910;6.792;2022-12-07T13:56:22;6.85;;;3.47;;
26806;SDS011;14380;49.910;6.792;2022-12-07T13:58:54;6.50;;;3.75;;
26806;SDS011;14380;49.910;6.792;2022-12-07T14:01:21;9.20;;;4.13;;
26806;SDS011;14380;49.910;6.792;2022-12-07T14:03:47;9.55;;;4.90;;
26806;SDS011;14380;49.910;6.792;2022-12-07T14:06:15;8.95;;;4.82;;
26806;SDS011;14380;49.910;6.792;2022-12-07T14:08:45;6.55;;;3.40;;
26806;SDS011;14380;49.910;6.792;2022-12-07T14:11:16;6.25;;;3.60;;
26806;SDS011;14380;49.910;6.792;2022-12-07T14:13:51;8.02;;;4.03;;
26806;SDS011;14380;49.910;6.792;2022-12-07T14:16:25;10.48;;;3.30;;
26806;SDS011;14380;49.910;6.792;2022-12-07T14:18:54;5.38;;;2.17;;
26806;SDS011;14380;49.910;6.792;2022-12-07T14:21:21;5.28;;;2.08;;
26806;SDS011;14380;49.910;6.792;2022-12-07T14:24:02;6.63;;;2.00;;
26806;SDS011;14380;49.910;6.792;2022-12-07T14:26:34;4.65;;;2.13;;
26806;SDS011;14380;49.910;6.792;2022-12-07T14:31:48;4.28;;;1.67;;
26806;SDS011;14380;49.910;6.792;2022-12-07T14:34:14;5.32;;;1.90;;
26806;SDS011;14380;49.910;6.792;2022-12-07T14:36:41;5.63;;;1.45;;
26806;SDS011;14380;49.910;6.792;2022-12-07T14:39:07;5.82;;;1.40;;
26806;SDS011;14380;49.910;6.792;2022-12-07T14:41:34;6.13;;;2.03;;
26806;SDS011;14380;49.910;6.792;2022-12-07T14:44:21;4.07;;;1.88;;
26806;SDS011;14380;49.910;6.792;2022-12-07T14:46:48;3.50;;;1.92;;
26806;SDS011;14380;49.910;6.792;2022-12-07T14:49:15;4.00;;;1.63;;
26806;SDS011;14380;49.910;6.792;2022-12-07T14:51:43;3.63;;;1.70;;
26806;SDS011;14380;49.910;6.792;2022-12-07T14:54:14;3.95;;;2.20;;
26806;SDS011;14380;49.910;6.792;2022-12-07T14:56:43;3.42;;;1.60;;
26806;SDS011;14380;49.910;6.792;2022-12-07T14:59:10;9.57;;;1.92;;
26806;SDS011;14380;49.910;6.792;2022-12-07T15:01:39;5.60;;;3.38;;
26806;SDS011;14380;49.910;6.792;2022-12-07T15:04:05;4.32;;;1.30;;
26806;SDS011;14380;49.910;6.792;2022-12-07T15:06:31;4.20;;;1.50;;
26806;SDS011;14380;49.910;6.792;2022-12-07T15:08:58;4.65;;;1.55;;
26806;SDS011;14380;49.910;6.792;2022-12-07T15:11:25;2.85;;;1.73;;
26806;SDS011;14380;49.910;6.792;2022-12-07T15:13:51;3.28;;;1.98;;